createdAt,value
2023-03-29T00:00:04.795Z,6.64
2023-03-29T00:01:04.778Z,6.64
2023-03-29T00:02:04.850Z,6.60
2023-03-29T00:03:04.924Z,6.60
2023-03-29T00:04:04.931Z,6.58
2023-03-29T00:05:04.742Z,6.58
2023-03-29T00:06:04.711Z,6.64
2023-03-29T00:07:04.999Z,6.64
2023-03-29T00:08:04.847Z,6.58
2023-03-29T00:09:04.666Z,6.60
2023-03-29T00:10:04.677Z,6.69
2023-03-29T00:11:04.890Z,6.73
2023-03-29T00:12:04.632Z,6.65
2023-03-29T00:13:04.612Z,6.65
2023-03-29T00:14:04.914Z,6.60
2023-03-29T00:15:04.582Z,6.68
2023-03-29T00:16:04.573Z,6.75
2023-03-29T00:17:04.631Z,6.69
2023-03-29T00:18:04.576Z,6.63
2023-03-29T00:19:04.533Z,6.61
2023-03-29T00:20:04.527Z,6.73
2023-03-29T00:21:04.739Z,6.72
2023-03-29T00:22:04.485Z,6.75
2023-03-29T00:23:04.485Z,6.73
2023-03-29T00:24:04.453Z,6.76
2023-03-29T00:25:04.468Z,6.75
2023-03-29T00:26:07.729Z,6.79
2023-03-29T00:27:04.422Z,6.75
2023-03-29T00:28:04.407Z,6.79
2023-03-29T00:29:04.390Z,6.81
2023-03-29T00:30:04.381Z,6.86
2023-03-29T00:31:04.729Z,6.81
2023-03-29T00:32:04.350Z,6.87
2023-03-29T00:33:04.370Z,6.78
2023-03-29T00:34:04.344Z,6.72
2023-03-29T00:35:04.309Z,6.79
2023-03-29T00:36:04.381Z,6.82
2023-03-29T00:37:04.363Z,6.78
2023-03-29T00:38:04.365Z,6.81
2023-03-29T00:39:04.404Z,6.63
2023-03-29T00:40:04.440Z,6.68
2023-03-29T00:41:04.567Z,6.69
2023-03-29T00:42:04.614Z,6.69
2023-03-29T00:43:04.201Z,6.60
2023-03-29T00:44:04.190Z,6.68
2023-03-29T00:45:04.219Z,6.69
2023-03-29T00:46:04.173Z,6.71
2023-03-29T00:47:04.147Z,6.61
2023-03-29T00:48:04.158Z,6.68
2023-03-29T00:49:04.109Z,6.61
2023-03-29T00:50:04.127Z,6.57
2023-03-29T00:51:04.442Z,6.53
2023-03-29T00:52:04.076Z,6.60
2023-03-29T00:53:04.056Z,6.53
2023-03-29T00:54:04.049Z,6.55
2023-03-29T00:55:04.028Z,6.48
2023-03-29T00:56:04.024Z,6.61
2023-03-29T00:57:04.081Z,6.50
2023-03-29T00:58:03.993Z,6.57
2023-03-29T00:59:03.975Z,6.55
2023-03-29T01:00:04.018Z,6.55
2023-03-29T01:01:04.244Z,6.55
2023-03-29T01:02:04.056Z,6.51
2023-03-29T01:03:04.327Z,6.60
2023-03-29T01:04:04.020Z,6.72
2023-03-29T01:05:03.930Z,6.58
2023-03-29T01:06:03.938Z,6.63
2023-03-29T01:07:03.920Z,6.65
2023-03-29T01:08:03.867Z,6.69
2023-03-29T01:09:03.839Z,6.63
2023-03-29T01:10:03.842Z,6.75
2023-03-29T01:11:04.040Z,6.61
2023-03-29T01:12:03.793Z,6.69
2023-03-29T01:13:03.808Z,6.64
2023-03-29T01:14:03.785Z,6.55
2023-03-29T01:15:04.216Z,6.61
2023-03-29T01:16:03.973Z,6.61
2023-03-29T01:17:03.746Z,6.54
2023-03-29T01:18:03.757Z,6.61
2023-03-29T01:19:03.707Z,6.61
2023-03-29T01:20:03.695Z,6.65
2023-03-29T01:21:03.795Z,6.57
2023-03-29T01:22:03.696Z,6.55
2023-03-29T01:23:03.647Z,6.48
2023-03-29T01:24:03.638Z,6.46
2023-03-29T01:25:03.619Z,6.54
2023-03-29T01:26:03.613Z,6.55
2023-03-29T01:27:03.599Z,6.42
2023-03-29T01:28:03.840Z,6.55
2023-03-29T01:29:03.562Z,6.50
2023-03-29T01:30:03.560Z,6.43
2023-03-29T01:31:03.765Z,6.53
2023-03-29T01:32:03.660Z,6.64
2023-03-29T01:33:03.561Z,6.40
2023-03-29T01:34:03.496Z,6.50
2023-03-29T01:35:03.643Z,6.46
2023-03-29T01:36:03.567Z,6.43
2023-03-29T01:37:03.446Z,6.46
2023-03-29T01:38:03.469Z,6.39
2023-03-29T01:39:03.432Z,6.40
2023-03-29T01:40:03.418Z,6.46
2023-03-29T01:41:03.697Z,6.43
2023-03-29T01:42:03.387Z,6.51
2023-03-29T01:43:03.369Z,6.36
2023-03-29T01:44:03.370Z,6.43
2023-03-29T01:45:03.362Z,6.50
2023-03-29T01:46:03.411Z,6.42
2023-03-29T01:47:03.309Z,6.51
2023-03-29T01:48:03.336Z,6.48
2023-03-29T01:49:03.286Z,6.35
2023-03-29T01:50:03.274Z,6.36
2023-03-29T01:51:03.461Z,6.40
2023-03-29T01:52:03.243Z,6.36
2023-03-29T01:53:03.233Z,6.40
2023-03-29T01:54:03.237Z,6.35
2023-03-29T01:55:03.240Z,6.40
2023-03-29T01:56:03.187Z,6.43
2023-03-29T01:57:03.213Z,6.36
2023-03-29T01:58:03.164Z,6.24
2023-03-29T01:59:03.149Z,6.27
2023-03-29T02:00:03.161Z,6.21
2023-03-29T02:01:03.440Z,6.21
2023-03-29T02:02:03.108Z,6.27
2023-03-29T02:03:03.224Z,6.20
2023-03-29T02:04:03.087Z,6.19
2023-03-29T02:05:03.098Z,6.13
2023-03-29T02:06:03.057Z,6.17
2023-03-29T02:07:03.030Z,6.16
2023-03-29T02:08:03.019Z,6.17
2023-03-29T02:09:03.011Z,6.11
2023-03-29T02:10:03.013Z,6.17
2023-03-29T02:11:03.168Z,6.17
2023-03-29T02:12:02.966Z,6.20
2023-03-29T02:13:02.953Z,6.13
2023-03-29T02:14:02.939Z,6.06
2023-03-29T02:15:02.937Z,6.14
2023-03-29T02:16:02.997Z,6.13
2023-03-29T02:17:02.891Z,6.19
2023-03-29T02:18:02.917Z,6.19
2023-03-29T02:19:02.873Z,6.17
2023-03-29T02:20:02.851Z,6.19
2023-03-29T02:21:03.071Z,6.24
2023-03-29T02:22:02.830Z,6.14
2023-03-29T02:23:02.812Z,6.13
2023-03-29T02:24:02.802Z,6.20
2023-03-29T02:25:02.784Z,6.21
2023-03-29T02:26:02.799Z,6.27
2023-03-29T02:27:02.759Z,6.32
2023-03-29T02:28:02.751Z,6.28
2023-03-29T02:29:02.731Z,6.27
2023-03-29T02:30:02.733Z,6.35
2023-03-29T02:31:02.967Z,6.20
2023-03-29T02:32:02.697Z,6.28
2023-03-29T02:33:02.718Z,6.32
2023-03-29T02:34:02.664Z,6.25
2023-03-29T02:35:02.649Z,6.27
2023-03-29T02:36:02.692Z,6.25
2023-03-29T02:37:02.618Z,6.25
2023-03-29T02:38:02.609Z,6.25
2023-03-29T02:39:02.594Z,6.20
2023-03-29T02:40:02.577Z,6.25
2023-03-29T02:41:02.838Z,6.19
2023-03-29T02:42:02.567Z,6.17
2023-03-29T02:43:02.544Z,6.21
2023-03-29T02:44:02.717Z,6.16
2023-03-29T02:45:02.510Z,6.16
2023-03-29T02:46:02.496Z,6.16
2023-03-29T02:47:02.554Z,6.13
2023-03-29T02:48:02.600Z,6.14
2023-03-29T02:49:02.457Z,6.16
2023-03-29T02:50:02.451Z,6.14
2023-03-29T02:51:02.731Z,6.16
2023-03-29T02:52:02.412Z,6.16
2023-03-29T02:53:02.397Z,6.08
2023-03-29T02:54:02.384Z,6.19
2023-03-29T02:55:02.381Z,6.10
2023-03-29T02:56:02.413Z,6.28
2023-03-29T02:57:02.414Z,6.20
2023-03-29T02:58:02.360Z,6.14
2023-03-29T02:59:02.334Z,6.14
2023-03-29T03:00:02.306Z,6.33
2023-03-29T03:01:02.592Z,6.32
2023-03-29T03:02:02.320Z,6.19
2023-03-29T03:03:02.450Z,6.16
2023-03-29T03:04:02.316Z,6.17
2023-03-29T03:05:02.235Z,6.21
2023-03-29T03:06:02.229Z,6.14
2023-03-29T03:07:02.212Z,6.16
2023-03-29T03:08:02.198Z,6.13
2023-03-29T03:09:02.188Z,6.11
2023-03-29T03:10:02.179Z,6.14
2023-03-29T03:11:02.404Z,6.16
2023-03-29T03:12:02.141Z,6.14
2023-03-29T03:13:02.156Z,6.19
2023-03-29T03:14:02.149Z,6.10
2023-03-29T03:15:02.105Z,6.14
2023-03-29T03:16:02.111Z,6.16
2023-03-29T03:17:04.597Z,6.21
2023-03-29T03:18:02.136Z,6.27
2023-03-29T03:19:02.046Z,6.28
2023-03-29T03:20:02.043Z,6.30
2023-03-29T03:21:02.505Z,6.16
2023-03-29T03:22:01.997Z,6.30
2023-03-29T03:23:01.984Z,6.27
2023-03-29T03:24:01.975Z,6.21
2023-03-29T03:25:01.963Z,6.20
2023-03-29T03:26:01.949Z,6.20
2023-03-29T03:27:01.954Z,6.17
2023-03-29T03:28:02.058Z,6.30
2023-03-29T03:29:01.917Z,6.28
2023-03-29T03:30:01.924Z,6.32
2023-03-29T03:31:02.176Z,6.28
2023-03-29T03:32:01.895Z,6.36
2023-03-29T03:33:01.899Z,6.33
2023-03-29T03:34:01.856Z,6.28
2023-03-29T03:35:01.816Z,6.39
2023-03-29T03:36:01.838Z,6.28
2023-03-29T03:37:01.945Z,6.32
2023-03-29T03:38:01.797Z,6.30
2023-03-29T03:39:01.776Z,6.36
2023-03-29T03:40:01.804Z,6.36
2023-03-29T03:41:02.009Z,6.40
2023-03-29T03:42:01.716Z,6.36
2023-03-29T03:43:01.730Z,6.32
2023-03-29T03:44:01.712Z,6.32
2023-03-29T03:45:01.701Z,6.39
2023-03-29T03:46:01.810Z,6.33
2023-03-29T03:47:01.651Z,6.39
2023-03-29T03:48:01.698Z,6.32
2023-03-29T03:49:01.920Z,6.32
2023-03-29T03:50:01.663Z,6.32
2023-03-29T03:51:01.853Z,6.28
2023-03-29T03:52:01.578Z,6.36
2023-03-29T03:53:01.565Z,6.25
2023-03-29T03:54:01.543Z,6.28
2023-03-29T03:55:01.533Z,6.32
2023-03-29T03:56:01.525Z,6.33
2023-03-29T03:57:01.545Z,6.35
2023-03-29T03:58:01.504Z,6.28
2023-03-29T03:59:01.476Z,6.21
2023-03-29T04:00:01.489Z,6.39
2023-03-29T04:01:01.749Z,6.33
2023-03-29T04:02:01.708Z,6.30
2023-03-29T04:03:01.645Z,6.32
2023-03-29T04:04:01.753Z,6.30
2023-03-29T04:05:01.406Z,6.21
2023-03-29T04:06:01.384Z,6.30
2023-03-29T04:07:01.376Z,6.32
2023-03-29T04:08:01.355Z,6.17
2023-03-29T04:09:01.353Z,6.16
2023-03-29T04:10:01.324Z,6.32
2023-03-29T04:11:01.634Z,6.25
2023-03-29T04:12:01.311Z,6.28
2023-03-29T04:13:01.287Z,6.19
2023-03-29T04:14:01.279Z,6.36
2023-03-29T04:15:01.306Z,6.28
2023-03-29T04:16:01.982Z,6.24
2023-03-29T04:17:01.246Z,6.21
2023-03-29T04:18:01.380Z,6.25
2023-03-29T04:19:01.265Z,6.30
2023-03-29T04:20:01.187Z,6.20
2023-03-29T04:21:01.513Z,6.21
2023-03-29T04:22:01.714Z,6.21
2023-03-29T04:23:01.169Z,6.20
2023-03-29T04:24:01.137Z,6.25
2023-03-29T04:25:01.130Z,6.19
2023-03-29T04:26:01.109Z,6.16
2023-03-29T04:27:01.296Z,6.11
2023-03-29T04:28:01.092Z,6.24
2023-03-29T04:29:01.070Z,6.24
2023-03-29T04:30:01.059Z,6.28
2023-03-29T04:31:01.404Z,6.24
2023-03-29T04:32:01.674Z,6.21
2023-03-29T04:33:01.098Z,6.30
2023-03-29T04:34:01.019Z,6.21
2023-03-29T04:35:00.993Z,6.20
2023-03-29T04:36:01.006Z,6.30
2023-03-29T04:37:00.957Z,6.33
2023-03-29T04:38:00.955Z,6.30
2023-03-29T04:39:00.929Z,6.40
2023-03-29T04:40:00.920Z,6.39
2023-03-29T04:41:01.320Z,6.36
2023-03-29T04:42:00.883Z,6.32
2023-03-29T04:43:01.011Z,6.39
2023-03-29T04:44:00.856Z,6.42
2023-03-29T04:45:00.987Z,6.36
2023-03-29T04:46:01.141Z,6.35
2023-03-29T04:47:00.819Z,6.27
2023-03-29T04:48:00.968Z,6.39
2023-03-29T04:49:00.785Z,6.35
2023-03-29T04:50:00.797Z,6.33
2023-03-29T04:51:01.095Z,6.39
2023-03-29T04:52:00.744Z,6.38
2023-03-29T04:53:00.733Z,6.36
2023-03-29T04:54:00.738Z,6.43
2023-03-29T04:55:00.731Z,6.36
2023-03-29T04:56:00.706Z,6.39
2023-03-29T04:57:00.696Z,6.42
2023-03-29T04:58:00.681Z,6.42
2023-03-29T04:59:00.659Z,6.48
2023-03-29T05:00:00.640Z,6.45
2023-03-29T05:01:00.696Z,6.38
2023-03-29T05:02:00.643Z,6.48
2023-03-29T05:03:00.690Z,6.48
2023-03-29T05:04:00.590Z,6.43
2023-03-29T05:05:00.569Z,6.46
2023-03-29T05:06:00.580Z,6.39
2023-03-29T05:07:00.589Z,6.50
2023-03-29T05:08:00.527Z,6.42
2023-03-29T05:09:00.510Z,6.45
2023-03-29T05:10:00.518Z,6.40
2023-03-29T05:11:00.789Z,6.38
2023-03-29T05:12:00.474Z,6.39
2023-03-29T05:13:00.463Z,6.42
2023-03-29T05:14:00.444Z,6.33
2023-03-29T05:15:00.435Z,6.48
2023-03-29T05:16:00.502Z,6.46
2023-03-29T05:17:00.395Z,6.38
2023-03-29T05:18:00.521Z,6.39
2023-03-29T05:19:00.375Z,6.35
2023-03-29T05:20:00.365Z,6.35
2023-03-29T05:21:00.601Z,6.51
2023-03-29T05:22:00.362Z,6.43
2023-03-29T05:23:00.336Z,6.43
2023-03-29T05:24:00.309Z,6.40
2023-03-29T05:25:00.293Z,6.35
2023-03-29T05:26:00.294Z,6.40
2023-03-29T05:27:00.272Z,6.43
2023-03-29T05:28:00.252Z,6.45
2023-03-29T05:29:00.236Z,6.48
2023-03-29T05:30:00.518Z,6.46
2023-03-29T05:31:00.490Z,6.46
2023-03-29T05:32:00.237Z,6.48
2023-03-29T05:33:00.195Z,6.42
2023-03-29T05:34:00.180Z,6.39
2023-03-29T05:35:00.163Z,6.43
2023-03-29T05:36:00.192Z,6.48
2023-03-29T05:37:00.141Z,6.53
2023-03-29T05:38:00.149Z,6.53
2023-03-29T05:39:00.096Z,6.64
2023-03-29T05:40:06.190Z,6.60
2023-03-29T05:41:01.328Z,6.68
2023-03-29T05:42:00.107Z,6.54
2023-03-29T05:43:00.050Z,6.60
2023-03-29T05:44:00.028Z,6.55
2023-03-29T05:45:00.031Z,6.69
2023-03-29T05:46:00.009Z,6.61
2023-03-29T05:46:59.992Z,6.71
2023-03-29T05:48:00.007Z,6.63
2023-03-29T05:48:59.972Z,6.71
2023-03-29T05:50:00.043Z,6.69
2023-03-29T05:51:00.032Z,6.76
2023-03-29T05:51:59.920Z,6.72
2023-03-29T05:52:59.905Z,6.79
2023-03-29T05:53:59.912Z,6.81
2023-03-29T05:54:59.874Z,6.72
2023-03-29T05:55:59.861Z,6.79
2023-03-29T05:56:59.873Z,6.82
2023-03-29T05:57:59.835Z,6.82
2023-03-29T05:58:59.827Z,6.89
2023-03-29T05:59:59.831Z,6.83
2023-03-29T06:00:59.980Z,6.82
2023-03-29T06:01:59.860Z,6.87
2023-03-29T06:03:10.098Z,6.86
2023-03-29T06:04:01.050Z,6.96
2023-03-29T06:04:59.755Z,6.90
2023-03-29T06:05:59.732Z,6.99
2023-03-29T06:06:59.722Z,7.07
2023-03-29T06:07:59.704Z,6.96
2023-03-29T06:08:59.685Z,6.93
2023-03-29T06:09:59.698Z,7.11
2023-03-29T06:11:01.167Z,7.12
2023-03-29T06:11:59.657Z,7.09
2023-03-29T06:12:59.644Z,7.23
2023-03-29T06:13:59.823Z,7.09
2023-03-29T06:14:59.635Z,7.19
2023-03-29T06:15:59.594Z,7.19
2023-03-29T06:16:59.718Z,7.18
2023-03-29T06:17:59.635Z,7.32
2023-03-29T06:18:59.551Z,7.36
2023-03-29T06:19:59.537Z,7.36
2023-03-29T06:20:59.659Z,7.39
2023-03-29T06:21:59.515Z,7.39
2023-03-29T06:22:59.500Z,7.47
2023-03-29T06:23:59.493Z,7.50
2023-03-29T06:24:59.478Z,7.55
2023-03-29T06:25:59.481Z,7.52
2023-03-29T06:26:59.445Z,7.69
2023-03-29T06:27:59.436Z,7.74
2023-03-29T06:28:59.426Z,7.82
2023-03-29T06:29:59.408Z,7.84
2023-03-29T06:30:59.466Z,7.89
2023-03-29T06:31:59.371Z,7.88
2023-03-29T06:32:59.404Z,7.95
2023-03-29T06:33:59.350Z,8.04
2023-03-29T06:34:59.334Z,7.96
2023-03-29T06:35:59.401Z,8.00
2023-03-29T06:36:59.310Z,8.06
2023-03-29T06:37:59.296Z,7.92
2023-03-29T06:38:59.286Z,7.95
2023-03-29T06:39:59.278Z,7.95
2023-03-29T06:40:59.332Z,7.96
2023-03-29T06:42:00.824Z,7.99
2023-03-29T06:42:59.237Z,8.04
2023-03-29T06:43:59.230Z,7.94
2023-03-29T06:44:59.207Z,8.03
2023-03-29T06:45:59.224Z,8.03
2023-03-29T06:46:59.185Z,8.03
2023-03-29T06:47:59.276Z,8.09
2023-03-29T06:48:59.147Z,8.03
2023-03-29T06:49:59.129Z,8.13
2023-03-29T06:50:59.127Z,8.24
2023-03-29T06:51:59.297Z,8.18
2023-03-29T06:52:59.096Z,8.17
2023-03-29T06:53:59.089Z,8.10
2023-03-29T06:54:59.067Z,8.24
2023-03-29T06:55:59.051Z,8.28
2023-03-29T06:56:59.075Z,8.31
2023-03-29T06:58:00.990Z,8.39
2023-03-29T06:58:59.009Z,8.29
2023-03-29T06:59:59.019Z,8.42
2023-03-29T07:00:59.008Z,8.45
2023-03-29T07:01:59.093Z,8.47
2023-03-29T07:02:59.067Z,8.57
2023-03-29T07:03:58.961Z,8.52
2023-03-29T07:04:58.924Z,8.64
2023-03-29T07:05:58.910Z,8.79
2023-03-29T07:06:58.904Z,8.76
2023-03-29T07:07:58.894Z,8.71
2023-03-29T07:08:58.878Z,8.88
2023-03-29T07:09:58.862Z,8.96
2023-03-29T07:10:58.861Z,9.03
2023-03-29T07:11:58.842Z,9.16
2023-03-29T07:12:58.966Z,9.27
2023-03-29T07:13:58.829Z,9.35
2023-03-29T07:14:58.802Z,9.44
2023-03-29T07:15:58.869Z,9.48
2023-03-29T07:16:58.773Z,9.59
2023-03-29T07:17:58.830Z,9.68
2023-03-29T07:18:58.876Z,9.71
2023-03-29T07:19:58.720Z,9.95
2023-03-29T07:20:59.242Z,10.01
2023-03-29T07:21:58.700Z,10.13
2023-03-29T07:22:58.677Z,10.16
2023-03-29T07:23:58.672Z,10.26
2023-03-29T07:24:58.653Z,10.24
2023-03-29T07:25:58.646Z,10.26
2023-03-29T07:27:04.062Z,10.26
2023-03-29T07:27:58.621Z,10.25
2023-03-29T07:28:58.599Z,10.51
2023-03-29T07:29:58.616Z,10.57
2023-03-29T07:30:58.589Z,10.44
2023-03-29T07:31:58.568Z,10.55
2023-03-29T07:32:58.626Z,10.51
2023-03-29T07:33:58.538Z,10.49
2023-03-29T07:34:58.518Z,10.57
2023-03-29T07:35:58.517Z,10.42
2023-03-29T07:36:58.488Z,10.52
2023-03-29T07:37:58.475Z,10.55
2023-03-29T07:38:58.463Z,10.49
2023-03-29T07:39:58.448Z,10.62
2023-03-29T07:40:58.430Z,10.55
2023-03-29T07:41:58.427Z,10.46
2023-03-29T07:42:58.409Z,10.39
2023-03-29T07:43:58.398Z,10.47
2023-03-29T07:44:58.385Z,10.70
2023-03-29T07:45:58.741Z,10.66
2023-03-29T07:46:58.383Z,10.73
2023-03-29T07:47:58.691Z,10.75
2023-03-29T07:48:58.334Z,10.69
2023-03-29T07:49:58.304Z,10.62
2023-03-29T07:50:58.288Z,10.63
2023-03-29T07:51:58.290Z,10.75
2023-03-29T07:52:58.270Z,10.81
2023-03-29T07:53:58.269Z,10.81
2023-03-29T07:54:58.239Z,10.72
2023-03-29T07:55:58.228Z,10.76
2023-03-29T07:56:58.253Z,10.76
2023-03-29T07:57:58.200Z,10.68
2023-03-29T07:58:58.182Z,10.75
2023-03-29T07:59:58.175Z,10.80
2023-03-29T08:00:58.210Z,10.80
2023-03-29T08:01:58.164Z,10.73
2023-03-29T08:02:58.183Z,10.88
2023-03-29T08:03:58.226Z,10.75
2023-03-29T08:04:58.136Z,10.86
2023-03-29T08:05:58.088Z,10.93
2023-03-29T08:06:58.093Z,11.01
2023-03-29T08:07:58.078Z,10.86
2023-03-29T08:08:58.060Z,11.01
2023-03-29T08:09:58.040Z,11.11
2023-03-29T08:10:58.015Z,11.05
2023-03-29T08:11:58.005Z,11.09
2023-03-29T08:12:58.002Z,11.08
2023-03-29T08:13:57.981Z,11.16
2023-03-29T08:14:57.969Z,11.19
2023-03-29T08:15:57.959Z,11.21
2023-03-29T08:16:57.959Z,11.19
2023-03-29T08:17:57.982Z,11.23
2023-03-29T08:18:57.927Z,11.23
2023-03-29T08:19:57.902Z,11.38
2023-03-29T08:20:58.164Z,11.38
2023-03-29T08:21:57.880Z,11.30
2023-03-29T08:22:57.861Z,11.27
2023-03-29T08:23:57.851Z,11.26
2023-03-29T08:24:57.842Z,11.30
2023-03-29T08:25:57.828Z,11.20
2023-03-29T08:26:57.824Z,11.33
2023-03-29T08:27:57.791Z,11.24
2023-03-29T08:28:57.776Z,11.20
2023-03-29T08:29:57.767Z,11.24
2023-03-29T08:30:57.825Z,11.21
2023-03-29T08:31:57.742Z,11.13
2023-03-29T08:32:57.744Z,11.26
2023-03-29T08:33:57.753Z,11.33
2023-03-29T08:34:57.719Z,11.33
2023-03-29T08:35:57.726Z,11.31
2023-03-29T08:36:57.667Z,11.45
2023-03-29T08:37:57.658Z,11.42
2023-03-29T08:38:57.662Z,11.38
2023-03-29T08:39:57.635Z,11.42
2023-03-29T08:40:57.618Z,11.33
2023-03-29T08:41:57.606Z,11.53
2023-03-29T08:42:57.592Z,11.48
2023-03-29T08:43:57.581Z,11.46
2023-03-29T08:44:57.573Z,11.67
2023-03-29T08:45:57.577Z,11.70
2023-03-29T08:46:57.597Z,11.77
2023-03-29T08:47:57.599Z,11.69
2023-03-29T08:48:57.566Z,11.64
2023-03-29T08:49:57.520Z,11.62
2023-03-29T08:50:57.554Z,11.53
2023-03-29T08:51:57.470Z,11.75
2023-03-29T08:52:57.459Z,11.84
2023-03-29T08:53:57.447Z,11.84
2023-03-29T08:54:57.439Z,11.87
2023-03-29T08:55:57.429Z,11.96
2023-03-29T08:56:57.408Z,11.97
2023-03-29T08:57:57.385Z,12.03
2023-03-29T08:58:57.374Z,11.88
2023-03-29T08:59:57.369Z,11.98
2023-03-29T09:00:57.356Z,12.04
2023-03-29T09:01:57.426Z,12.07
2023-03-29T09:02:57.495Z,12.18
2023-03-29T09:03:57.406Z,12.16
2023-03-29T09:04:57.305Z,12.31
2023-03-29T09:05:57.302Z,12.30
2023-03-29T09:06:57.267Z,12.21
2023-03-29T09:07:57.253Z,12.22
2023-03-29T09:08:57.245Z,12.33
2023-03-29T09:09:57.255Z,12.33
2023-03-29T09:10:57.212Z,12.46
2023-03-29T09:11:57.193Z,12.41
2023-03-29T09:12:57.209Z,12.37
2023-03-29T09:13:57.167Z,12.54
2023-03-29T09:14:57.150Z,12.56
2023-03-29T09:15:57.192Z,12.59
2023-03-29T09:16:57.124Z,12.59
2023-03-29T09:17:57.143Z,12.61
2023-03-29T09:18:57.098Z,12.63
2023-03-29T09:19:57.083Z,12.70
2023-03-29T09:20:57.082Z,12.88
2023-03-29T09:21:57.079Z,12.91
2023-03-29T09:22:57.068Z,12.87
2023-03-29T09:23:57.032Z,12.91
2023-03-29T09:24:57.012Z,13.04
2023-03-29T09:25:57.005Z,13.09
2023-03-29T09:26:56.991Z,13.29
2023-03-29T09:27:56.972Z,13.43
2023-03-29T09:28:56.958Z,13.53
2023-03-29T09:29:56.944Z,13.73
2023-03-29T09:30:56.932Z,13.91
2023-03-29T09:31:57.063Z,14.04
2023-03-29T09:32:56.990Z,13.98
2023-03-29T09:33:56.892Z,14.01
2023-03-29T09:34:56.876Z,14.05
2023-03-29T09:35:56.882Z,14.05
2023-03-29T09:36:56.865Z,14.08
2023-03-29T09:37:56.856Z,14.27
2023-03-29T09:38:56.823Z,14.23
2023-03-29T09:39:57.008Z,14.35
2023-03-29T09:40:56.788Z,14.45
2023-03-29T09:41:56.776Z,14.41
2023-03-29T09:42:56.783Z,14.48
2023-03-29T09:43:56.759Z,14.56
2023-03-29T09:44:56.742Z,14.78
2023-03-29T09:45:56.778Z,15.00
2023-03-29T09:46:56.717Z,15.07
2023-03-29T09:47:56.790Z,15.43
2023-03-29T09:48:56.693Z,15.60
2023-03-29T09:49:56.673Z,15.93
2023-03-29T09:50:56.672Z,15.96
2023-03-29T09:51:56.640Z,15.96
2023-03-29T09:52:56.636Z,15.81
2023-03-29T09:53:56.636Z,15.85
2023-03-29T09:54:56.602Z,16.07
2023-03-29T09:55:56.588Z,16.33
2023-03-29T09:56:56.609Z,16.65
2023-03-29T09:57:56.560Z,16.88
2023-03-29T09:58:56.545Z,16.98
2023-03-29T09:59:56.551Z,17.17
2023-03-29T10:00:56.537Z,17.22
2023-03-29T10:01:56.529Z,17.73
2023-03-29T10:02:56.539Z,18.13
2023-03-29T10:03:56.503Z,18.59
2023-03-29T10:04:56.469Z,18.89
2023-03-29T10:05:56.447Z,19.12
2023-03-29T10:06:56.439Z,19.13
2023-03-29T10:07:56.436Z,19.09
2023-03-29T10:08:56.426Z,19.40
2023-03-29T10:09:56.453Z,19.65
2023-03-29T10:10:56.394Z,20.02
2023-03-29T10:11:56.375Z,20.58
2023-03-29T10:12:56.362Z,20.33
2023-03-29T10:13:56.346Z,20.19
2023-03-29T10:14:56.332Z,20.27
2023-03-29T10:15:56.330Z,21.01
2023-03-29T10:16:56.576Z,21.09
2023-03-29T10:17:56.351Z,20.78
2023-03-29T10:18:56.283Z,20.91
2023-03-29T10:19:56.265Z,20.54
2023-03-29T10:20:56.252Z,20.58
2023-03-29T10:21:56.243Z,21.09
2023-03-29T10:22:56.240Z,21.40
2023-03-29T10:23:56.226Z,22.09
2023-03-29T10:24:56.219Z,22.11
2023-03-29T10:25:56.227Z,22.33
2023-03-29T10:26:56.199Z,22.60
2023-03-29T10:27:56.170Z,22.33
2023-03-29T10:28:56.157Z,22.09
2023-03-29T10:29:56.145Z,21.90
2023-03-29T10:30:56.126Z,22.38
2023-03-29T10:31:56.412Z,23.00
2023-03-29T10:32:56.165Z,23.22
2023-03-29T10:33:56.088Z,22.52
2023-03-29T10:34:56.072Z,21.86
2023-03-29T10:35:56.074Z,21.40
2023-03-29T10:36:56.048Z,21.27
2023-03-29T10:37:56.233Z,21.13
2023-03-29T10:38:56.031Z,20.66
2023-03-29T10:39:56.008Z,20.17
2023-03-29T10:40:56.000Z,19.75
2023-03-29T10:41:56.008Z,19.40
2023-03-29T10:42:55.999Z,19.34
2023-03-29T10:43:55.949Z,19.30
2023-03-29T10:44:55.970Z,19.10
2023-03-29T10:45:56.032Z,18.99
2023-03-29T10:46:55.918Z,18.78
2023-03-29T10:47:55.924Z,18.79
2023-03-29T10:48:55.898Z,18.91
2023-03-29T10:49:56.959Z,19.01
2023-03-29T10:50:55.870Z,19.02
2023-03-29T10:51:55.853Z,19.09
2023-03-29T10:52:55.835Z,18.66
2023-03-29T10:53:55.817Z,18.39
2023-03-29T10:54:55.821Z,18.53
2023-03-29T10:55:55.790Z,18.68
2023-03-29T10:56:55.796Z,18.90
2023-03-29T10:57:55.803Z,18.56
2023-03-29T10:58:55.749Z,18.13
2023-03-29T10:59:55.832Z,18.44
2023-03-29T11:00:55.749Z,18.49
2023-03-29T11:01:55.797Z,18.42
2023-03-29T11:02:55.790Z,18.07
2023-03-29T11:03:55.941Z,18.02
2023-03-29T11:04:55.674Z,18.19
2023-03-29T11:05:55.679Z,17.77
2023-03-29T11:06:55.661Z,17.66
2023-03-29T11:07:55.636Z,17.65
2023-03-29T11:08:55.689Z,17.45
2023-03-29T11:09:55.615Z,17.15
2023-03-29T11:10:55.598Z,16.84
2023-03-29T11:12:01.274Z,16.81
2023-03-29T11:12:56.590Z,16.81
2023-03-29T11:13:57.043Z,16.84
2023-03-29T11:14:55.566Z,16.81
2023-03-29T11:15:55.604Z,16.90
2023-03-29T11:16:55.534Z,16.95
2023-03-29T11:17:55.556Z,17.07
2023-03-29T11:18:55.506Z,17.10
2023-03-29T11:19:55.523Z,17.22
2023-03-29T11:20:55.482Z,17.33
2023-03-29T11:21:55.491Z,17.42
2023-03-29T11:22:55.440Z,17.35
2023-03-29T11:23:55.439Z,17.35
2023-03-29T11:24:55.413Z,17.39
2023-03-29T11:25:55.388Z,17.65
2023-03-29T11:26:55.396Z,17.51
2023-03-29T11:27:55.377Z,17.46
2023-03-29T11:28:55.359Z,17.49
2023-03-29T11:29:55.350Z,17.28
2023-03-29T11:30:55.421Z,17.17
2023-03-29T11:31:55.388Z,16.95
2023-03-29T11:32:55.360Z,16.88
2023-03-29T11:33:55.282Z,16.77
2023-03-29T11:34:55.281Z,16.75
2023-03-29T11:35:55.321Z,16.67
2023-03-29T11:36:55.253Z,16.60
2023-03-29T11:37:55.250Z,16.59
2023-03-29T11:38:55.310Z,16.60
2023-03-29T11:39:55.199Z,16.67
2023-03-29T11:40:55.200Z,16.75
2023-03-29T11:41:55.170Z,16.63
2023-03-29T11:42:55.162Z,16.51
2023-03-29T11:43:55.220Z,16.42
2023-03-29T11:44:55.244Z,16.37
2023-03-29T11:45:55.133Z,16.42
2023-03-29T11:46:55.660Z,16.25
2023-03-29T11:47:55.121Z,16.30
2023-03-29T11:48:55.079Z,16.42
2023-03-29T11:49:55.073Z,16.51
2023-03-29T11:50:55.059Z,16.78
2023-03-29T11:51:55.035Z,16.85
2023-03-29T11:52:55.031Z,17.05
2023-03-29T11:53:55.207Z,16.98
2023-03-29T11:54:54.989Z,17.06
2023-03-29T11:55:55.018Z,17.12
2023-03-29T11:56:54.993Z,17.12
2023-03-29T11:57:54.949Z,17.14
2023-03-29T11:58:55.041Z,17.30
2023-03-29T11:59:54.930Z,17.39
2023-03-29T12:00:54.915Z,17.45
2023-03-29T12:01:54.974Z,17.40
2023-03-29T12:02:54.970Z,17.42
2023-03-29T12:03:55.099Z,17.35
2023-03-29T12:04:54.857Z,17.36
2023-03-29T12:05:54.848Z,17.28
2023-03-29T12:06:54.842Z,17.33
2023-03-29T12:07:54.828Z,17.38
2023-03-29T12:08:54.820Z,17.40
2023-03-29T12:09:54.798Z,17.15
2023-03-29T12:10:54.788Z,16.90
2023-03-29T12:11:54.760Z,16.80
2023-03-29T12:12:54.758Z,16.63
2023-03-29T12:13:54.734Z,16.66
2023-03-29T12:14:54.725Z,16.69
2023-03-29T12:15:54.712Z,16.54
2023-03-29T12:16:54.747Z,16.41
2023-03-29T12:17:54.760Z,16.50
2023-03-29T12:18:54.681Z,16.40
2023-03-29T12:19:54.653Z,16.30
2023-03-29T12:20:54.643Z,16.37
2023-03-29T12:21:54.642Z,16.30
2023-03-29T12:22:54.618Z,16.23
2023-03-29T12:23:54.601Z,16.18
2023-03-29T12:24:54.596Z,16.25
2023-03-29T12:25:54.588Z,16.26
2023-03-29T12:26:54.560Z,16.25
2023-03-29T12:27:54.546Z,16.37
2023-03-29T12:28:54.536Z,16.37
2023-03-29T12:29:54.518Z,16.36
2023-03-29T12:30:54.505Z,16.51
2023-03-29T12:31:54.527Z,16.48
2023-03-29T12:32:54.548Z,16.63
2023-03-29T12:33:54.495Z,16.51
2023-03-29T12:34:54.454Z,16.50
2023-03-29T12:35:54.451Z,16.50
2023-03-29T12:36:54.422Z,16.48
2023-03-29T12:37:54.409Z,16.33
2023-03-29T12:38:54.397Z,16.14
2023-03-29T12:39:54.388Z,16.14
2023-03-29T12:40:54.378Z,16.30
2023-03-29T12:41:54.365Z,16.40
2023-03-29T12:42:54.360Z,16.40
2023-03-29T12:43:54.336Z,16.30
2023-03-29T12:44:54.332Z,16.30
2023-03-29T12:45:54.342Z,16.37
2023-03-29T12:46:54.324Z,16.51
2023-03-29T12:47:54.349Z,16.57
2023-03-29T12:48:54.290Z,16.78
2023-03-29T12:49:54.280Z,17.00
2023-03-29T12:50:54.232Z,16.96
2023-03-29T12:51:54.222Z,16.96
2023-03-29T12:52:54.214Z,16.96
2023-03-29T12:53:54.195Z,16.98
2023-03-29T12:54:54.230Z,17.14
2023-03-29T12:55:54.172Z,16.95
2023-03-29T12:56:54.228Z,16.87
2023-03-29T12:57:54.138Z,16.96
2023-03-29T12:58:54.163Z,16.85
2023-03-29T12:59:54.113Z,16.92
2023-03-29T13:00:54.153Z,16.81
2023-03-29T13:01:54.186Z,16.81
2023-03-29T13:02:54.123Z,16.78
2023-03-29T13:03:54.057Z,16.72
2023-03-29T13:04:54.119Z,16.84
2023-03-29T13:05:54.089Z,16.88